• Join FlightAware (Why Join?)
  • Login
  • US Flag 
09:44AM EDT


 

Airport Tracker/Info


-or-


 

Live Flight TrackerFlight Track Log ✈ N825TD ✈ 21-Oct-2013 ✈ KLAL - KAPF

Flight Track Log - Related Links

Times and Time Zones

All times are in EDT time to prevent confusion due to time zone crossing. See the N825TD flight status page for this flight to view local times or setup timezone preferences in your user account.

Time Position Orientation Groundspeed Altitude Reporting Facility
EDT Latitude Longitude Course Direction KTS MPH feet Rate Location/Type
10:46AM 27.8342 -81.9706 170° South 80 92 5,000  Level Miami Center
10:47AM 27.7883 -81.9639 173° South 149 171 5,000  Level Miami Center
10:48AM 27.7489 -81.9575 172° South 154 177 5,000 300 Level Miami Center
10:49AM 27.7139 -81.9489 168° South 140 161 5,700 780 Climbing Miami Center
10:50AM 27.8037 -81.9937 172° South  Level Estimated
10:50AM 27.6872 -81.9311 149° Southeast 128 147 6,600  Level Miami Center
10:51AM 27.6564 -81.9181 159° South 123 142 7,100 180 Climbing Miami Center
10:52AM 27.7425 -81.9814 170° South  Level FlightAware Approximate
10:52AM 27.6153 -81.9022 161° South 135 155 7,000  Level Miami Center
10:53AM 27.5783 -81.8842 157° South 145 167 7,000  Level Miami Center
10:54AM 27.5414 -81.8686 160° South 145 167 7,000  Level Miami Center
10:55AM 27.5022 -81.8528 160° South 145 167 7,000  Level Miami Center
10:56AM 27.4653 -81.8347 157° South 145 167 7,000  Level Miami Center
10:57AM 27.4303 -81.8192 158° South 145 167 7,000  Level Miami Center
10:58AM 27.3933 -81.8036 160° South 145 167 7,000  Level Miami Center
10:59AM 27.3564 -81.7858 157° South 145 167 7,000  Level Miami Center
11:00AM 27.3194 -81.7700 159° South 145 167 7,000  Level Miami Center
11:01AM 27.2803 -81.7522 158° South 145 167 7,000  Level Miami Center
11:02AM 27.2456 -81.7344 156° South 145 167 7,000  Level Miami Center
11:03AM 27.2083 -81.7186 159° South 145 167 7,000  Level Miami Center
11:04AM 27.1714 -81.7031 159° South 145 167 7,000  Level Miami Center
11:05AM 27.1344 -81.6853 157° South 145 167 7,000  Level Miami Center
11:06AM 27.0975 -81.6675 157° South 145 167 7,000  Level Miami Center
11:07AM 27.0603 -81.6519 160° South 145 167 7,000  Level Miami Center
11:08AM 27.0189 -81.6433 169° South 145 167 7,000  Level Miami Center
11:10AM 26.9831 -81.6511 191° South 140 161 7,000  Level Miami Center
11:11AM 26.9389 -81.6586 189° South 146 168 7,000  Level Miami Center
11:12AM 26.8992 -81.6639 187° South 141 162 7,000  Level Miami Center
11:13AM 26.8594 -81.6692 187° South 148 170 7,000  Level Miami Center
11:14AM 26.8172 -81.6769 189° South 142 163 7,000  Level Miami Center
11:16AM 26.7460 -81.6845 185° South  Level FlightAware Approximate
11:23AM 26.4802 -81.7191 186° South  Level FlightAware Approximate
11:24AM 26.4421 -81.7239 186° South  Level FlightAware Approximate
11:25AM 26.4040 -81.7287 186° South  Level FlightAware Approximate
11:26AM 26.3659 -81.7335 186° South  Level FlightAware Approximate
11:27AM 26.3278 -81.7382 186° South  Level FlightAware Approximate
11:28AM 26.2897 -81.7430 186° South  Level FlightAware Approximate
11:29AM 26.2516 -81.7477 186° South  Level FlightAware Approximate
11:30AM 26.2137 -81.7539 190° South  Level FlightAware Approximate
11:31AM 26.1759 -81.7615 190° South  Level FlightAware Approximate
11:32AM 26.1500 -81.7667 190° South  Level FlightAware Approximate
11:33AM 26.1524 -81.7756 190° South  Level Estimated
11:34AM 26.1524 -81.7756 190° South  Level Estimated
11:35AM 26.1524 -81.7756 190° South  Level Estimated
11:36AM 26.1524 -81.7756 190° South  Level Estimated
11:37AM 26.1524 -81.7756 190° South  Level Estimated
11:38AM 26.1524 -81.7756 190° South  Level Estimated
11:39AM 26.1524 -81.7756 190° South  Level Estimated
11:40AM 26.1524 -81.7756 190° South  Level Estimated
11:41AM 26.1524 -81.7756 190° South  Level Estimated
11:42AM 26.1524 -81.7756 190° South  Level Estimated
11:43AM 26.1524 -81.7756 190° South  Level Estimated
11:44AM 26.1524 -81.7756 190° South  Level Estimated
11:45AM 26.1524 -81.7756 190° South  Level Estimated
11:46AM 26.1524 -81.7756 190° South  Level Estimated